createdAt,value
2017-04-19T00:00:13.713Z,3.56
2017-04-19T00:01:24.783Z,3.57
2017-04-19T00:02:35.817Z,3.57
2017-04-19T00:03:46.845Z,3.54
2017-04-19T00:04:58.070Z,3.56
2017-04-19T00:06:09.144Z,3.53
2017-04-19T00:07:20.356Z,3.49
2017-04-19T00:08:31.387Z,3.53
2017-04-19T00:09:42.416Z,3.45
2017-04-19T00:10:53.426Z,3.46
2017-04-19T00:12:04.454Z,3.39
2017-04-19T00:13:15.734Z,3.4
2017-04-19T00:14:26.752Z,3.39
2017-04-19T00:15:38.261Z,3.32
2017-04-19T00:16:49.288Z,3.24
2017-04-19T00:18:00.581Z,3.14
2017-04-19T00:19:11.611Z,3.11
2017-04-19T00:20:22.637Z,3.11
2017-04-19T00:21:33.656Z,3.13
2017-04-19T00:22:44.739Z,3.05
2017-04-19T00:23:55.770Z,3.03
2017-04-19T00:25:06.798Z,3.02
2017-04-19T00:26:18.229Z,3.03
2017-04-19T00:27:29.255Z,3.02
2017-04-19T00:28:40.270Z,3.05
2017-04-19T00:29:51.289Z,2.98
2017-04-19T00:31:02.311Z,2.91
2017-04-19T00:32:13.331Z,2.88
2017-04-19T00:33:24.600Z,2.8
2017-04-19T00:34:35.620Z,2.76
2017-04-19T00:35:46.662Z,2.85
2017-04-19T00:36:57.684Z,2.81
2017-04-19T00:38:08.711Z,2.81
2017-04-19T00:39:19.852Z,2.69
2017-04-19T00:40:30.882Z,2.77
2017-04-19T00:41:42.095Z,2.69
2017-04-19T00:42:53.117Z,2.69
2017-04-19T00:44:04.131Z,2.67
2017-04-19T00:45:15.152Z,2.66
2017-04-19T00:46:26.166Z,2.6
2017-04-19T00:47:37.213Z,2.54
2017-04-19T00:48:48.239Z,2.6
2017-04-19T00:49:59.273Z,2.49
2017-04-19T00:51:10.758Z,2.49
2017-04-19T00:52:21.786Z,2.49
2017-04-19T00:53:32.813Z,2.45
2017-04-19T00:54:43.854Z,2.48
2017-04-19T00:55:54.887Z,2.38
2017-04-19T00:57:05.909Z,2.26
2017-04-19T00:58:16.930Z,2.27
2017-04-19T00:59:28.130Z,2.26
2017-04-19T01:00:39.516Z,2.26
2017-04-19T01:01:50.536Z,2.22
2017-04-19T01:03:01.568Z,2.22
2017-04-19T01:04:12.594Z,2.18
2017-04-19T01:05:23.838Z,2.11
2017-04-19T01:06:34.854Z,2.11
2017-04-19T01:07:45.866Z,2.12
2017-04-19T01:08:56.897Z,2.08
2017-04-19T01:10:08.326Z,2.01
2017-04-19T01:11:19.599Z,1.98
2017-04-19T01:12:30.625Z,1.92
2017-04-19T01:13:41.648Z,1.97
2017-04-19T01:14:52.673Z,1.97
2017-04-19T01:16:03.689Z,1.9
2017-04-19T01:17:15.165Z,1.92
2017-04-19T01:18:26.197Z,1.89
2017-04-19T01:19:37.416Z,1.86
2017-04-19T01:20:48.442Z,1.92
2017-04-19T01:21:59.505Z,1.89
2017-04-19T01:23:10.729Z,1.76
2017-04-19T01:24:21.759Z,1.92
2017-04-19T01:25:32.769Z,1.86
2017-04-19T01:41:50.656Z,1.71
2017-04-19T01:43:01.887Z,1.74
2017-04-19T01:44:12.964Z,1.75
2017-04-19T01:45:23.996Z,1.61
2017-04-19T01:46:35.025Z,1.71
2017-04-19T01:47:46.253Z,1.54
2017-04-19T01:48:57.273Z,1.54
2017-04-19T01:50:08.295Z,1.56
2017-04-19T01:51:19.317Z,1.64
2017-04-19T01:52:30.549Z,1.56
2017-04-19T01:53:41.566Z,1.5
2017-04-19T01:54:52.634Z,1.48
2017-04-19T01:56:03.654Z,1.48
2017-04-19T01:57:14.686Z,1.54
2017-04-19T01:58:25.926Z,1.53
2017-04-19T01:59:36.952Z,1.46
2017-04-19T02:00:47.975Z,1.4
2017-04-19T02:01:58.986Z,1.32
2017-04-19T02:03:10.001Z,1.35
2017-04-19T02:04:21.021Z,1.32
2017-04-19T02:05:32.088Z,1.35
2017-04-19T02:06:43.108Z,1.36
2017-04-19T02:07:54.138Z,1.36
2017-04-19T02:09:05.157Z,1.32
2017-04-19T02:10:16.178Z,1.26
2017-04-19T02:11:27.213Z,1.2
2017-04-19T02:12:38.234Z,1.21
2017-04-19T02:13:49.263Z,1.24
2017-04-19T02:15:00.281Z,1.18
2017-04-19T02:16:11.504Z,1.22
2017-04-19T02:17:22.537Z,1.11
2017-04-19T02:18:33.573Z,1.15
2017-04-19T02:19:44.605Z,1.14
2017-04-19T02:20:55.623Z,1.15
2017-04-19T02:22:06.644Z,1.07
2017-04-19T02:23:17.762Z,1.12
2017-04-19T02:24:28.783Z,1.15
2017-04-19T02:25:39.814Z,1.14
2017-04-19T02:26:51.098Z,1.07
2017-04-19T02:28:02.131Z,1.04
2017-04-19T02:29:13.364Z,1.04
2017-04-19T02:30:24.593Z,0.99
2017-04-19T02:31:35.618Z,1.04
2017-04-19T02:32:46.646Z,0.97
2017-04-19T02:33:57.669Z,0.96
2017-04-19T02:35:08.686Z,0.94
2017-04-19T02:36:19.743Z,0.9
2017-04-19T02:37:31.021Z,0.93
2017-04-19T02:38:42.050Z,0.92
2017-04-19T02:39:53.101Z,0.89
2017-04-19T02:41:04.129Z,0.74
2017-04-19T02:42:15.153Z,0.85
2017-04-19T02:43:26.317Z,0.84
2017-04-19T02:44:37.332Z,0.79
2017-04-19T02:45:48.349Z,0.84
2017-04-19T02:46:59.367Z,0.86
2017-04-19T02:48:10.439Z,0.81
2017-04-19T02:49:21.468Z,0.84
2017-04-19T02:50:32.491Z,0.76
2017-04-19T02:51:43.513Z,0.76
2017-04-19T02:52:54.571Z,0.74
2017-04-19T02:54:05.651Z,0.71
2017-04-19T02:55:16.685Z,0.61
2017-04-19T02:56:27.908Z,0.67
2017-04-19T02:57:38.925Z,0.61
2017-04-19T02:58:49.940Z,0.56
2017-04-19T03:00:00.955Z,0.57
2017-04-19T03:01:11.984Z,0.6
2017-04-19T03:02:23.010Z,0.6
2017-04-19T03:03:34.040Z,0.66
2017-04-19T03:04:45.069Z,0.53
2017-04-19T03:05:56.333Z,0.48
2017-04-19T03:07:07.686Z,0.53
2017-04-19T03:08:18.717Z,0.6
2017-04-19T03:09:29.795Z,0.63
2017-04-19T03:10:41.083Z,0.57
2017-04-19T03:11:52.304Z,0.53
2017-04-19T03:13:03.535Z,0.47
2017-04-19T03:14:14.767Z,0.57
2017-04-19T03:15:26.198Z,0.5
2017-04-19T03:16:37.443Z,0.41
2017-04-19T03:17:48.671Z,0.39
2017-04-19T03:18:59.696Z,0.39
2017-04-19T03:20:10.720Z,0.56
2017-04-19T03:21:21.791Z,0.39
2017-04-19T03:22:33.010Z,0.44
2017-04-19T03:23:44.043Z,0.45
2017-04-19T03:24:55.071Z,0.44
2017-04-19T03:26:06.305Z,0.37
2017-04-19T03:27:17.592Z,0.38
2017-04-19T03:28:28.619Z,0.41
2017-04-19T03:29:39.885Z,0.38
2017-04-19T03:30:51.307Z,0.34
2017-04-19T03:32:02.575Z,0.37
2017-04-19T03:33:13.790Z,0.23
2017-04-19T03:34:24.811Z,0.24
2017-04-19T03:35:35.831Z,0.32
2017-04-19T03:36:46.843Z,0.31
2017-04-19T03:37:57.860Z,0.24
2017-04-19T03:39:08.879Z,0.23
2017-04-19T03:40:20.113Z,0.21
2017-04-19T03:41:31.338Z,0.16
2017-04-19T03:42:42.373Z,0.2
2017-04-19T03:43:53.399Z,0.24
2017-04-19T03:45:04.619Z,0.26
2017-04-19T03:46:15.640Z,0.2
2017-04-19T03:47:26.854Z,0.16
2017-04-19T03:48:38.197Z,0.17
2017-04-19T03:49:49.241Z,0.19
2017-04-19T03:51:00.256Z,0.26
2017-04-19T03:52:11.273Z,0.21
2017-04-19T03:53:22.292Z,0.2
2017-04-19T03:54:33.320Z,0.14
2017-04-19T03:55:44.342Z,0.17
2017-04-19T03:56:55.364Z,0.16
2017-04-19T03:58:06.581Z,0.09
2017-04-19T03:59:17.850Z,0.14
2017-04-19T04:00:28.865Z,0.06
2017-04-19T04:01:39.888Z,0.08
2017-04-19T04:02:50.901Z,0.08
2017-04-19T04:04:01.914Z,0.14
2017-04-19T04:05:13.134Z,0.08
2017-04-19T04:06:24.580Z,0.02
2017-04-19T04:07:35.612Z,0.06
2017-04-19T04:08:46.623Z,0.03
2017-04-19T04:09:57.692Z,-0.04
2017-04-19T04:11:08.713Z,0.02
2017-04-19T04:12:19.736Z,-0.05
2017-04-19T04:13:30.951Z,0.02
2017-04-19T04:14:41.986Z,-0.04
2017-04-19T04:15:53.466Z,0.03
2017-04-19T04:17:04.491Z,-0.13
2017-04-19T04:18:15.724Z,0.01
2017-04-19T04:19:27.201Z,-0.04
2017-04-19T04:20:38.234Z,-0.07
2017-04-19T04:21:49.459Z,-0.13
2017-04-19T04:23:00.489Z,-0.09
2017-04-19T04:24:11.501Z,-0.13
2017-04-19T04:25:22.538Z,-0.12
2017-04-19T04:26:33.617Z,-0.2
2017-04-19T04:27:44.843Z,-0.1
2017-04-19T04:28:55.868Z,-0.18
2017-04-19T04:30:06.883Z,-0.15
2017-04-19T04:31:18.275Z,-0.2
2017-04-19T04:32:29.340Z,-0.2
2017-04-19T04:33:40.374Z,-0.16
2017-04-19T04:34:51.397Z,-0.2
2017-04-19T04:36:02.414Z,-0.13
2017-04-19T04:37:13.687Z,-0.07
2017-04-19T04:38:24.703Z,-0.18
2017-04-19T04:39:35.734Z,-0.18
2017-04-19T04:40:46.751Z,-0.18
2017-04-19T04:41:57.773Z,-0.16
2017-04-19T04:43:08.784Z,-0.16
2017-04-19T04:44:20.206Z,-0.13
2017-04-19T04:45:31.217Z,-0.1
2017-04-19T04:46:42.269Z,-0.01
2017-04-19T04:47:53.542Z,0.13
2017-04-19T04:49:04.553Z,0.16
2017-04-19T04:50:15.571Z,0.14
2017-04-19T04:51:26.593Z,0.23
2017-04-19T04:52:37.619Z,0.14
2017-04-19T04:53:48.682Z,0.09
2017-04-19T04:54:59.735Z,0.13
2017-04-19T04:56:10.753Z,0.13
2017-04-19T04:57:21.767Z,0.16
2017-04-19T04:58:32.799Z,0.14
2017-04-19T04:59:43.823Z,0.2
2017-04-19T05:00:54.840Z,0.26
2017-04-19T05:02:05.864Z,0.19
2017-04-19T05:03:16.882Z,0.13
2017-04-19T05:04:27.899Z,0.14
2017-04-19T05:05:39.169Z,0.17
2017-04-19T05:06:50.200Z,0.24
2017-04-19T05:08:01.216Z,0.26
2017-04-19T05:09:12.229Z,0.26
2017-04-19T05:10:23.246Z,0.34
2017-04-19T05:11:34.270Z,0.37
2017-04-19T05:12:45.491Z,0.35
2017-04-19T05:13:56.516Z,0.44
2017-04-19T05:15:07.873Z,0.5
2017-04-19T05:16:19.041Z,0.58
2017-04-19T05:17:30.058Z,0.66
2017-04-19T05:18:41.292Z,0.61
2017-04-19T05:19:52.303Z,0.69
2017-04-19T05:21:03.581Z,0.74
2017-04-19T05:22:14.600Z,0.78
2017-04-19T05:23:25.613Z,0.84
2017-04-19T05:24:36.638Z,0.81
2017-04-19T05:25:47.899Z,0.81
2017-04-19T05:26:59.115Z,0.84
2017-04-19T05:28:10.336Z,0.78
2017-04-19T05:29:21.364Z,0.86
2017-04-19T05:30:32.378Z,0.85
2017-04-19T05:31:43.584Z,0.89
2017-04-19T05:32:54.621Z,0.93
2017-04-19T05:34:05.858Z,0.92
2017-04-19T05:35:17.077Z,0.96
2017-04-19T05:36:28.239Z,1
2017-04-19T05:37:39.256Z,1.03
2017-04-19T05:38:50.289Z,1.02
2017-04-19T05:40:01.310Z,1.08
2017-04-19T05:41:12.323Z,1.08
2017-04-19T05:42:23.339Z,1.1
2017-04-19T05:43:34.357Z,1.17
2017-04-19T05:44:45.582Z,1.11
2017-04-19T05:45:56.640Z,1.22
2017-04-19T05:47:07.930Z,1.24
2017-04-19T05:48:18.949Z,1.32
2017-04-19T05:49:29.970Z,1.35
2017-04-19T05:50:40.985Z,1.44
2017-04-19T05:51:52.200Z,1.47
2017-04-19T05:53:03.225Z,1.57
2017-04-19T05:54:14.246Z,1.75
2017-04-19T05:55:25.267Z,1.86
2017-04-19T05:56:36.291Z,2.02
2017-04-19T05:57:47.771Z,2.2
2017-04-19T05:58:58.911Z,2.44
2017-04-19T06:00:10.056Z,2.54
2017-04-19T06:01:21.078Z,2.6
2017-04-19T06:02:32.100Z,2.65
2017-04-19T06:03:43.329Z,2.66
2017-04-19T06:04:54.356Z,2.65
2017-04-19T06:06:05.573Z,2.58
2017-04-19T06:07:16.583Z,2.6
2017-04-19T06:08:27.657Z,2.65
2017-04-19T06:09:38.692Z,2.69
2017-04-19T06:10:49.711Z,2.73
2017-04-19T06:12:00.730Z,2.67
2017-04-19T06:13:11.739Z,2.67
2017-04-19T06:14:22.963Z,2.67
2017-04-19T06:15:33.989Z,2.8
2017-04-19T06:16:45.038Z,2.98
2017-04-19T06:17:56.065Z,3.03
2017-04-19T06:19:07.107Z,3.24
2017-04-19T06:20:18.391Z,3.35
2017-04-19T06:21:29.432Z,3.42
2017-04-19T06:22:40.487Z,3.53
2017-04-19T06:23:51.506Z,3.61
2017-04-19T06:25:02.538Z,3.79
2017-04-19T06:26:13.808Z,3.86
2017-04-19T06:27:24.843Z,3.93
2017-04-19T06:28:35.865Z,4.02
2017-04-19T06:29:46.882Z,4.12
2017-04-19T06:30:57.919Z,4.54
2017-04-19T06:32:08.951Z,4.75
2017-04-19T06:33:19.976Z,4.85
2017-04-19T06:34:30.992Z,5.1
2017-04-19T06:35:42.066Z,5.51
2017-04-19T06:36:53.093Z,5.87
2017-04-19T06:38:04.120Z,6.1
2017-04-19T06:39:15.138Z,6.37
2017-04-19T06:40:26.165Z,6.55
2017-04-19T06:41:37.195Z,6.86
2017-04-19T06:42:48.236Z,7.12
2017-04-19T06:43:59.262Z,7.36
2017-04-19T06:45:10.282Z,7.49
2017-04-19T06:46:21.365Z,7.68
2017-04-19T06:47:32.393Z,7.95
2017-04-19T06:48:43.626Z,8.13
2017-04-19T06:49:54.660Z,8.22
2017-04-19T06:51:05.695Z,8.4
2017-04-19T06:52:16.989Z,8.62
2017-04-19T06:53:28.017Z,8.74
2017-04-19T06:54:39.041Z,8.82
2017-04-19T06:55:50.074Z,9.03
2017-04-19T06:57:01.133Z,9
2017-04-19T06:58:12.160Z,8.98
2017-04-19T06:59:23.193Z,9.21
2017-04-19T07:00:34.441Z,9.55
2017-04-19T07:01:45.469Z,9.93
2017-04-19T07:02:56.498Z,9.96
2017-04-19T07:04:08.017Z,10.05
2017-04-19T07:05:19.261Z,9.98
2017-04-19T07:06:30.300Z,9.99
2017-04-19T07:07:41.339Z,10.33
2017-04-19T07:08:52.577Z,10.44
2017-04-19T07:10:03.618Z,10.67
2017-04-19T07:11:14.851Z,10.77
2017-04-19T07:12:26.080Z,10.8
2017-04-19T07:13:37.168Z,10.73
2017-04-19T07:14:48.197Z,10.7
2017-04-19T07:15:59.432Z,10.59
2017-04-19T07:17:10.465Z,10.75
2017-04-19T07:18:21.747Z,10.46
2017-04-19T07:19:32.990Z,9.98
2017-04-19T07:20:44.022Z,9.52
2017-04-19T07:21:55.067Z,9.41
2017-04-19T07:23:06.089Z,9.55
2017-04-19T07:24:17.374Z,9.8
2017-04-19T07:25:28.409Z,9.75
2017-04-19T07:26:39.633Z,9.71
2017-04-19T07:27:50.662Z,9.78
2017-04-19T07:29:01.709Z,9.75
2017-04-19T07:30:12.762Z,10.07
2017-04-19T07:31:23.810Z,10.11
2017-04-19T07:32:34.851Z,9.84
2017-04-19T07:33:45.887Z,9.66
2017-04-19T07:34:56.917Z,9.9
2017-04-19T07:36:07.944Z,10.11
2017-04-19T07:37:19.189Z,10.41
2017-04-19T07:38:30.221Z,10.77
2017-04-19T07:39:41.452Z,10.88
2017-04-19T07:40:52.494Z,10.92
2017-04-19T07:42:03.534Z,10.79
2017-04-19T07:43:14.557Z,10.2
2017-04-19T07:44:25.596Z,9.71
2017-04-19T07:45:36.890Z,9.71
2017-04-19T07:46:48.153Z,9.52
2017-04-19T07:47:59.221Z,9.19
2017-04-19T07:49:10.250Z,8.79
2017-04-19T07:50:21.294Z,9.14
2017-04-19T07:51:32.337Z,9.16
2017-04-19T07:52:43.372Z,8.67
2017-04-19T07:53:54.400Z,8.57
2017-04-19T07:55:05.638Z,8.79
2017-04-19T07:56:16.928Z,8.86
2017-04-19T07:57:28.156Z,9.12
2017-04-19T07:58:39.201Z,9.48
2017-04-19T07:59:50.223Z,9.85
2017-04-19T08:01:01.290Z,10.13
2017-04-19T08:02:12.521Z,9.96
2017-04-19T08:03:23.759Z,9.66
2017-04-19T08:04:34.779Z,9.48
2017-04-19T08:05:46.050Z,9.64
2017-04-19T08:06:57.327Z,9.7
2017-04-19T08:08:08.362Z,9.66
2017-04-19T08:09:19.390Z,9.67
2017-04-19T08:10:30.417Z,9.64
2017-04-19T08:11:41.448Z,9.53
2017-04-19T08:12:52.687Z,9.34
2017-04-19T08:14:03.731Z,9.23
2017-04-19T08:15:14.965Z,9.05
2017-04-19T08:16:25.993Z,8.98
2017-04-19T08:17:37.228Z,9
2017-04-19T08:18:48.252Z,8.79
2017-04-19T08:19:59.484Z,8.43
2017-04-19T08:21:10.529Z,8.19
2017-04-19T08:22:21.565Z,7.88
2017-04-19T08:23:33.052Z,7.88
2017-04-19T08:24:44.080Z,8.22
2017-04-19T08:25:55.107Z,8.57
2017-04-19T08:27:06.133Z,8.89
2017-04-19T08:28:17.161Z,9.19
2017-04-19T08:29:28.190Z,9.19
2017-04-19T08:30:39.237Z,9.14
2017-04-19T08:31:50.478Z,9.14
2017-04-19T08:33:01.513Z,9.55
2017-04-19T08:34:12.600Z,9.75
2017-04-19T08:35:23.621Z,9.6
2017-04-19T08:36:34.660Z,9.78
2017-04-19T08:37:45.691Z,10.32
2017-04-19T08:38:56.918Z,10.95
2017-04-19T08:40:07.941Z,11.53
2017-04-19T08:41:18.986Z,11.86
2017-04-19T08:42:30.019Z,12.33
2017-04-19T08:43:41.061Z,12.58
2017-04-19T08:44:52.139Z,13.1
2017-04-19T08:46:03.621Z,13.45
2017-04-19T08:47:14.661Z,13.84
2017-04-19T08:48:25.894Z,14.15
2017-04-19T08:49:36.922Z,13.69
2017-04-19T08:50:47.959Z,13.13
2017-04-19T08:51:59.195Z,13.02
2017-04-19T08:53:10.639Z,13.1
2017-04-19T08:54:22.080Z,12.56
2017-04-19T08:55:33.122Z,12.11
2017-04-19T08:56:44.168Z,11.81
2017-04-19T08:57:55.399Z,11.38
2017-04-19T08:59:06.442Z,11
2017-04-19T09:00:17.468Z,11.1
2017-04-19T09:01:28.767Z,11.42
2017-04-19T09:02:39.816Z,11.23
2017-04-19T09:03:50.857Z,11.3
2017-04-19T09:05:02.116Z,11.46
2017-04-19T09:06:13.237Z,11.57
2017-04-19T09:07:24.486Z,11.46
2017-04-19T09:08:35.529Z,11.59
2017-04-19T09:09:46.773Z,12.2
2017-04-19T09:10:58.009Z,12.61
2017-04-19T09:12:09.295Z,12.59
2017-04-19T09:13:20.341Z,12.53
2017-04-19T09:14:31.389Z,12.48
2017-04-19T09:15:42.434Z,12.41
2017-04-19T09:16:53.869Z,12.58
2017-04-19T09:18:04.911Z,13.07
2017-04-19T09:19:15.958Z,13.27
2017-04-19T09:20:26.992Z,13.16
2017-04-19T09:21:38.237Z,12.89
2017-04-19T09:22:49.527Z,12.73
2017-04-19T09:24:01.044Z,12.89
2017-04-19T09:25:12.231Z,12.74
2017-04-19T09:26:23.477Z,12.61
2017-04-19T09:27:34.512Z,12.66
2017-04-19T09:28:45.543Z,12.69
2017-04-19T09:29:56.586Z,12.38
2017-04-19T09:31:07.640Z,12.41
2017-04-19T09:32:18.680Z,12.56
2017-04-19T09:33:29.719Z,12.84
2017-04-19T09:34:40.755Z,12.53
2017-04-19T09:35:51.990Z,12.53
2017-04-19T09:37:03.024Z,12.51
2017-04-19T09:38:14.074Z,11.88
2017-04-19T09:39:25.161Z,11.09
2017-04-19T09:40:36.202Z,10.47
2017-04-19T09:41:47.244Z,10.13
2017-04-19T09:42:58.272Z,10.03
2017-04-19T09:44:09.582Z,10.23
2017-04-19T09:45:21.016Z,10.42
2017-04-19T09:46:32.056Z,10.33
2017-04-19T09:47:43.082Z,10.31
2017-04-19T09:48:54.102Z,10
2017-04-19T09:50:05.194Z,9.85
2017-04-19T09:51:16.234Z,9.81
2017-04-19T09:52:27.278Z,9.95
2017-04-19T09:53:38.519Z,10.28
2017-04-19T09:54:49.758Z,10.23
2017-04-19T09:56:00.798Z,10.21
2017-04-19T09:57:11.878Z,10.07
2017-04-19T09:58:22.908Z,9.88
2017-04-19T09:59:33.958Z,9.99
2017-04-19T10:00:45.048Z,10.41
2017-04-19T10:01:56.092Z,10.38
2017-04-19T10:03:07.313Z,10.31
2017-04-19T10:04:18.419Z,10.2
2017-04-19T10:05:29.900Z,10.13
2017-04-19T10:06:40.963Z,9.77
2017-04-19T10:07:51.995Z,9.66
2017-04-19T10:09:03.009Z,9.57
2017-04-19T10:10:14.045Z,9.45
2017-04-19T10:11:25.079Z,9.37
2017-04-19T10:12:36.110Z,9.41
2017-04-19T10:13:47.134Z,9.39
2017-04-19T10:14:58.162Z,9.16
2017-04-19T10:16:09.188Z,8.97
2017-04-19T10:17:20.288Z,9.01
2017-04-19T10:18:31.515Z,8.85
2017-04-19T10:19:42.548Z,8.82
2017-04-19T10:20:53.791Z,8.74
2017-04-19T10:22:04.813Z,8.58
2017-04-19T10:23:15.998Z,8.46
2017-04-19T10:24:27.112Z,8.32
2017-04-19T10:25:38.323Z,8.32
2017-04-19T10:26:49.354Z,8.29
2017-04-19T10:28:00.467Z,8.26
2017-04-19T10:29:11.507Z,8.32
2017-04-19T10:30:22.536Z,8.44
2017-04-19T10:31:33.572Z,8.46
2017-04-19T10:32:44.587Z,8.4
2017-04-19T10:33:55.612Z,8.4
2017-04-19T10:35:06.632Z,8.4
2017-04-19T10:36:17.662Z,8.54
2017-04-19T10:37:28.696Z,8.92
2017-04-19T10:38:39.971Z,9.27
2017-04-19T10:39:50.986Z,9.32
2017-04-19T10:41:02.016Z,9.19
2017-04-19T10:42:13.058Z,9.14
2017-04-19T10:43:24.490Z,9.05
2017-04-19T10:44:35.626Z,9.11
2017-04-19T10:45:46.937Z,9.19
2017-04-19T10:46:58.166Z,9.2
2017-04-19T10:48:09.191Z,9.11
2017-04-19T10:49:20.221Z,8.92
2017-04-19T10:50:31.239Z,8.79
2017-04-19T10:51:42.267Z,8.52
2017-04-19T10:52:53.497Z,8.57
2017-04-19T10:54:04.543Z,8.42
2017-04-19T10:55:15.618Z,8.64
2017-04-19T10:56:26.840Z,8.67
2017-04-19T10:57:38.058Z,8.6
2017-04-19T10:58:49.268Z,8.62
2017-04-19T11:00:00.295Z,8.57
2017-04-19T11:01:11.328Z,8.42
2017-04-19T11:02:22.361Z,8.46
2017-04-19T11:03:33.587Z,8.61
2017-04-19T11:04:44.696Z,8.43
2017-04-19T11:05:55.839Z,8.52
2017-04-19T11:07:06.871Z,8.57
2017-04-19T11:08:17.882Z,8.69
2017-04-19T11:09:29.103Z,8.52
2017-04-19T11:10:40.118Z,8.54
2017-04-19T11:11:51.143Z,8.47
2017-04-19T11:13:02.162Z,8.47
2017-04-19T11:14:13.179Z,8.46
2017-04-19T11:15:24.218Z,8.52
2017-04-19T11:16:35.293Z,8.6
2017-04-19T11:17:46.310Z,8.71
2017-04-19T11:18:57.536Z,8.89
2017-04-19T11:20:08.558Z,8.94
2017-04-19T11:21:19.573Z,9
2017-04-19T11:22:30.591Z,8.94
2017-04-19T11:23:41.620Z,8.82
2017-04-19T11:24:52.640Z,8.74
2017-04-19T11:26:03.666Z,8.72
2017-04-19T11:27:14.902Z,8.57
2017-04-19T11:28:26.140Z,8.76
2017-04-19T11:29:37.173Z,9.09
2017-04-19T11:30:48.412Z,9.47
2017-04-19T11:31:59.637Z,9.95
2017-04-19T11:33:10.912Z,10.39
2017-04-19T11:34:21.932Z,10.69
2017-04-19T11:35:32.962Z,10.92
2017-04-19T11:36:43.993Z,11.05
2017-04-19T11:37:55.024Z,11.13
2017-04-19T11:39:06.047Z,10.98
2017-04-19T11:40:17.068Z,11.24
2017-04-19T11:41:28.094Z,11.59
2017-04-19T11:42:39.141Z,11.57
2017-04-19T11:43:50.217Z,11.08
2017-04-19T11:45:01.255Z,10.95
2017-04-19T11:46:12.513Z,10.91
2017-04-19T11:47:23.586Z,10.8
2017-04-19T11:48:34.620Z,10.67
2017-04-19T11:49:45.854Z,10.66
2017-04-19T11:50:56.884Z,10.75
2017-04-19T11:52:08.122Z,10.84
2017-04-19T11:53:19.155Z,11
2017-04-19T11:54:30.230Z,10.84
2017-04-19T11:55:41.259Z,10.84
2017-04-19T11:56:52.298Z,10.91
2017-04-19T11:58:03.550Z,10.9
2017-04-19T11:59:14.586Z,10.77
2017-04-19T12:00:25.615Z,10.63
2017-04-19T12:01:36.853Z,10.35
2017-04-19T12:02:47.884Z,10.18
2017-04-19T12:03:58.914Z,9.96
2017-04-19T12:05:10.157Z,9.75
2017-04-19T12:06:21.390Z,9.82
2017-04-19T12:07:32.463Z,9.78
2017-04-19T12:08:43.485Z,9.67
2017-04-19T12:09:54.513Z,9.64
2017-04-19T12:11:05.541Z,9.78
2017-04-19T12:12:16.566Z,9.95
2017-04-19T12:13:27.593Z,10.08
2017-04-19T12:14:38.823Z,10.11
2017-04-19T12:15:49.891Z,9.88
2017-04-19T12:17:00.923Z,9.78
2017-04-19T12:18:11.943Z,9.72
2017-04-19T12:19:22.970Z,9.67
2017-04-19T12:20:34.000Z,9.78
2017-04-19T12:21:45.035Z,9.88
2017-04-19T12:22:56.063Z,10.21
2017-04-19T12:24:07.288Z,10.59
2017-04-19T12:25:18.320Z,10.69
2017-04-19T12:26:29.790Z,10.8
2017-04-19T12:27:40.812Z,10.77
2017-04-19T12:28:51.847Z,10.91
2017-04-19T12:30:02.875Z,10.9
2017-04-19T12:31:13.913Z,11
2017-04-19T12:32:24.948Z,10.98
2017-04-19T12:33:35.964Z,11.05
2017-04-19T12:34:46.997Z,11.1
2017-04-19T12:35:58.029Z,11.18
2017-04-19T12:37:09.308Z,11.33
2017-04-19T12:38:20.345Z,11.35
2017-04-19T12:39:31.367Z,11.39
2017-04-19T12:40:42.408Z,11.38
2017-04-19T12:41:53.438Z,11.28
2017-04-19T12:43:04.668Z,11.26
2017-04-19T12:44:15.701Z,11.26
2017-04-19T12:45:26.944Z,11.05
2017-04-19T12:46:37.984Z,11
2017-04-19T12:47:49.126Z,10.77
2017-04-19T12:49:00.190Z,10.73
2017-04-19T12:50:11.217Z,10.77
2017-04-19T12:51:22.248Z,11.18
2017-04-19T12:52:33.268Z,11.09
2017-04-19T12:53:44.289Z,10.91
2017-04-19T12:54:55.309Z,10.85
2017-04-19T12:56:06.344Z,10.69
2017-04-19T12:57:17.374Z,10.57
2017-04-19T12:58:28.470Z,10.58
2017-04-19T12:59:39.497Z,10.36
2017-04-19T13:00:50.515Z,10.26
2017-04-19T13:02:01.532Z,10.1
2017-04-19T13:03:12.763Z,9.85
2017-04-19T13:04:23.991Z,9.71
2017-04-19T13:05:35.230Z,9.55
2017-04-19T13:06:46.255Z,9.67
2017-04-19T13:07:57.281Z,9.93
2017-04-19T13:09:08.352Z,10.28
2017-04-19T13:10:19.368Z,10.42
2017-04-19T13:11:30.402Z,10.7
2017-04-19T13:12:41.419Z,10.83
2017-04-19T13:13:52.429Z,10.84
2017-04-19T13:15:03.474Z,10.87
2017-04-19T13:16:14.497Z,10.83
2017-04-19T13:17:25.526Z,11.06
2017-04-19T13:18:36.558Z,11.13
2017-04-19T13:19:47.588Z,11.39
2017-04-19T13:20:58.607Z,11.61
2017-04-19T13:22:09.840Z,11.91
2017-04-19T13:23:20.864Z,12
2017-04-19T13:24:31.879Z,12.04
2017-04-19T13:25:42.910Z,12.08
2017-04-19T13:26:54.149Z,11.88
2017-04-19T13:28:05.173Z,11.63
2017-04-19T13:29:16.541Z,11.35
2017-04-19T13:30:27.617Z,10.88
2017-04-19T13:31:38.841Z,10.57
2017-04-19T13:32:49.872Z,10.39
2017-04-19T13:34:01.096Z,10.13
2017-04-19T13:35:12.127Z,10.07
2017-04-19T13:36:23.142Z,10
2017-04-19T13:37:34.169Z,10.07
2017-04-19T13:38:45.184Z,10.05
2017-04-19T13:39:56.417Z,9.98
2017-04-19T13:41:07.483Z,9.96
2017-04-19T13:42:18.511Z,10.08
2017-04-19T13:43:29.733Z,10.08
2017-04-19T13:44:40.954Z,10.11
2017-04-19T13:45:52.183Z,10.1
2017-04-19T13:47:03.220Z,9.99
2017-04-19T13:48:14.253Z,9.9
2017-04-19T13:49:25.367Z,9.77
2017-04-19T13:50:36.796Z,9.67
2017-04-19T13:51:47.879Z,9.7
2017-04-19T13:52:58.907Z,9.72
2017-04-19T13:54:10.147Z,9.95
2017-04-19T13:55:21.180Z,10.32
2017-04-19T13:56:32.230Z,10.39
2017-04-19T13:57:43.282Z,10.79
2017-04-19T13:58:54.297Z,10.88
2017-04-19T14:00:05.517Z,11.1
2017-04-19T14:01:16.540Z,11.43
2017-04-19T14:02:27.764Z,11.61
2017-04-19T14:03:38.788Z,11.61
2017-04-19T14:04:50.031Z,11.59
2017-04-19T14:06:01.061Z,11.56
2017-04-19T14:07:12.081Z,11.42
2017-04-19T14:08:23.166Z,11.21
2017-04-19T14:09:34.182Z,11.03
2017-04-19T14:10:45.410Z,10.97
2017-04-19T14:11:56.618Z,10.88
2017-04-19T14:13:07.647Z,10.79
2017-04-19T14:14:18.670Z,10.54
2017-04-19T14:15:29.691Z,10.51
2017-04-19T14:16:40.719Z,10.35
2017-04-19T14:17:52.341Z,10.28
2017-04-19T14:19:03.408Z,10.17
2017-04-19T14:20:14.436Z,9.98
2017-04-19T14:21:25.463Z,9.85
2017-04-19T14:22:36.486Z,9.67
2017-04-19T14:23:47.506Z,9.53
2017-04-19T14:24:58.535Z,9.44
2017-04-19T14:26:09.561Z,9.37
2017-04-19T14:27:20.581Z,9.26
2017-04-19T14:28:31.814Z,9.19
2017-04-19T14:29:43.084Z,9.14
2017-04-19T14:30:54.114Z,9.01
2017-04-19T14:32:05.338Z,8.95
2017-04-19T14:33:16.362Z,8.94
2017-04-19T14:34:27.387Z,8.97
2017-04-19T14:35:38.429Z,9.11
2017-04-19T14:36:49.449Z,9.17
2017-04-19T14:38:00.464Z,9.12
2017-04-19T14:39:11.479Z,9.41
2017-04-19T14:40:22.505Z,9.52
2017-04-19T14:41:33.726Z,9.89
2017-04-19T14:42:44.758Z,10.26
2017-04-19T14:43:55.989Z,10.61
2017-04-19T14:45:07.009Z,10.8
2017-04-19T14:46:18.090Z,10.73
2017-04-19T14:47:29.121Z,10.77
2017-04-19T14:48:40.158Z,10.59
2017-04-19T14:49:51.198Z,10.41
2017-04-19T14:51:02.221Z,10.32
2017-04-19T14:52:13.267Z,10.29
2017-04-19T14:53:24.396Z,10.26
2017-04-19T14:54:35.519Z,10.17
2017-04-19T14:55:46.554Z,10.13
2017-04-19T14:56:57.832Z,10.05
2017-04-19T14:58:08.858Z,10.1
2017-04-19T14:59:20.090Z,9.98
2017-04-19T15:00:31.105Z,10.02
2017-04-19T15:01:42.336Z,9.99
2017-04-19T15:02:53.357Z,10.11
2017-04-19T15:04:04.583Z,10.33
2017-04-19T15:05:15.608Z,10.46
2017-04-19T15:06:26.654Z,10.63
2017-04-19T15:07:37.925Z,10.83
2017-04-19T15:08:49.145Z,10.8
2017-04-19T15:10:00.167Z,10.77
2017-04-19T15:11:11.406Z,10.51
2017-04-19T15:12:22.633Z,10.46
2017-04-19T15:13:33.658Z,10.32
2017-04-19T15:14:44.792Z,10.1
2017-04-19T15:15:55.931Z,10.05
2017-04-19T15:17:07.112Z,9.99
2017-04-19T15:18:18.131Z,9.98
2017-04-19T15:19:29.153Z,9.85
2017-04-19T15:20:40.578Z,9.89
2017-04-19T15:21:51.613Z,10.02
2017-04-19T15:23:02.640Z,9.82
2017-04-19T15:24:13.728Z,9.84
2017-04-19T15:25:24.758Z,9.88
2017-04-19T15:26:35.788Z,9.88
2017-04-19T15:27:46.809Z,9.72
2017-04-19T15:28:58.036Z,9.75
2017-04-19T15:30:09.072Z,9.84
2017-04-19T15:31:20.086Z,9.85
2017-04-19T15:32:31.105Z,9.98
2017-04-19T15:33:42.129Z,9.99
2017-04-19T15:34:53.209Z,9.93
2017-04-19T15:36:04.234Z,9.81
2017-04-19T15:37:15.245Z,9.88
2017-04-19T15:38:26.331Z,9.85
2017-04-19T15:39:37.361Z,9.93
2017-04-19T15:40:48.385Z,10
2017-04-19T15:41:59.409Z,9.96
2017-04-19T15:43:10.439Z,9.82
2017-04-19T15:44:21.473Z,9.88
2017-04-19T15:45:32.494Z,9.85
2017-04-19T15:46:43.530Z,9.96
2017-04-19T15:47:54.561Z,9.96
2017-04-19T15:49:05.596Z,9.95
2017-04-19T15:50:16.667Z,9.84
2017-04-19T15:51:27.698Z,9.75
2017-04-19T15:52:38.721Z,9.84
2017-04-19T15:53:49.746Z,9.7
2017-04-19T15:55:00.781Z,9.64